Pagrindinis puslapis
METAR-TAF:

METAR-TAF

Oro uostai :

North Perry Airport

Hollywood, Florida, Jungtinės Amerikos Valstijos

platuma: 25-59-56N, ilguma: 080-14-28W, Aukštis: 2 m

Dabartinis oras

Ataskaita buvo paskelbta 48 minutes, ne 19:14 UTC
Vėjas 14 kt iš Rytų su gūsio iki 22 kt
Temperatūra 29°C
Drėgmė 74%
Slėgis 1014 hPa
Matomumas: 16.1 km
Išsisklaidę debesys ne aukštis 2800 ft
Su prošvaistėmis ne aukštis 3600 ft
Apsiniaukę ne aukštis 5500 ft
lietus

METAR: KHWO 221914Z 10014G22KT 10SM -RA SCT028 BKN036 OVC055 29/24 A2994 RMK AO2 RAB13 P0000 T02890239

Laikas: 16:02 (20:02 UTC)


TAF: trūkstamas

Orai ataskaitas ir orų prognozės (METAR, TAF).

turimą stotys yra geltonos ir raudonos taškus žemėlapyje.

Perkelti pele per norėdami pamatyti stoties vardą.

Tada spustelėkite, norėdami matyti oro stebėjimo ir prognozės.

Norėdami pakeisti žemėlapį: spustelėkite ant žalios mygtukų su juodo kryžiaus žemyn,; žalią mygtuką su brūkšneliu, jei norite nutolinti; arba žalių rodyklių gretimoms žemėlapius.


METAR-TAF: